Camiri, Bolivia
Current Conditions -  °F | °C
As of 10:00 PM on Sunday 25 Jan 2015 (Local Time) from SLTJ Reporting Station
Few Clouds Few Clouds  
Wind Chill: 64°   Ceiling: Unl
Heat Index: 64°   Visibility: 6mi
Dew Point: 57°   Wind: 0mph
Humidity: 77%   Direction: NA
Pressure: 30.15"   Gusts: NA
Location:  20.05°S, 63.52°W
Report Text: SLTJ 260200Z 00000KT 9999 FEW070 18/14 Q1021
Loading
Personal Weather Stations






























Interactive Weather Map New forecast layout! Learn more

10-Day Weather Forecast

Advertisements
Track Severe Weather on mobile